首页
METAR-TAF:

METAR-TAF

机场 :

格羅德諾機場

格罗德诺, 白俄罗斯

纬度: 53-36-06N, 经度: 024-03-18E, 海拔: 135米

当前天气观测

该预报发布于10小时和36分钟前的15:00 UTC
风速4节,风向南转西南
温度 17°C
湿度 68%
气压 1014 hPa
能见度10公里或以上
1500米以下无云,无积雨云

METAR: UMMG 191500Z 20002MPS CAVOK 17/11 Q1014 NOSIG

时间: 04:36 (01:36 UTC)

预报

该预报发布于11小时和36分钟前的14:00 UTC
预报有效从19日的 15点(UTC)到 19日的 24点(UTC)
风速6节,风向
能見度: 6000
散云层高于2000英尺
短暂存在
从 19日的 19点(UTC)到 19日的 24点(UTC)
风速4节,风向多变
能見度: 2000
散云层高于700英尺
轻雾

TAF: UMMG 191400Z 1915/1924 18003MPS 6000 SCT020 TEMPO 1919/1924 VRB02MPS 2000 BR SCT007

超过4000个机场的气象观测和天气预报(METAR&TAF报告)。

可查询的气象台以黄色和红色小点在地图上表示。

将鼠标移到小点上方,可查看气象台名称。

然后点击查看天气观测和预报。

如需切换地图:点击带黑十字的绿色按钮放大地图;点击带横线的绿色按钮缩小地图;或者点击绿色箭头查看邻近地区的地图。


METAR-TAF: